Etusivu
METAR-TAF:

METAR-TAF

Lentoasemat :

Kiel, Saksa

Leveyspiiri: 54-23N, Pituuspiiri: 010-10E, korkeus merenpinnasta: 31 m

Tämänhetkinen sää

Tämä raportti tehtiin 33 minuuttia sitten, kello 00.20 UTC
Tuuli 5 kn pohjoisen/luoteesta
Lämpötila 12°C
Kosteus 94%
Ilmanpaine 1013 hPa
Näkyvyys 10 km tai enemmän

METAR: EDHK 190020Z AUTO 34005KT 9999 // FEW049/// SCT140/// BKN190/// 12/11 Q1013

Aika: 02:53 (00:53 UTC)

Sääennuste

Tämä raportti tehtiin 10 tuntia ja 53 minuuttia sitten, kello 14.00 UTC
Ennuste voimassa 18. päivästä klo 15 UTC - 18. päivään klo 19 UTC
Tuuli 8 kn idästä/koillisesta
Näkyvyys 10 km tai enemmän
ei pilviä alle 1500 m:ssä eikä cumulonimbus-pilviä
Tulossa
18. päivästä klo 17 UTC - 18. päivään klo 19 UTC
Tuuli 3 kn eri suunnista

TAF: EDHK 181400Z 1815/1819 06008KT CAVOK BECMG 1817/1819 VRB03KT

Säähavainnot ja -ennusteet yli 4000 lentoasemalta (METAR- ja TAF-raportit).

Käytössä olevat sääasemat on merkitty karttaan keltaisilla ja punaisilla pisteillä.

Aseta hiiri pisteen päälle nähdäksesi sääaseman nimen.

Klikkaa sitten nähdäksesi säähavainnot ja -ennusteet.

Kartan vaihtaminen: klikkaa mustalla rastilla varustettuja vihreitä pisteitä, niin voit zoomata sisään; viivalla varustettua vihreää pistettä, niin voit zoomata ulos tai vihreitä nuolia, niin pääset viereisille kartoille.


METAR-TAF: